Weather reports worldwide

Advertisment
Mt. St.Vincent, France (7382): temperature & dewpoint: 06.11.2019 16:00:00 - 12.11.2019 16:00:00 (CET)Mt. St.Vincent, France (7382): wind speed & gusts: 06.11.2019 16:00:00 - 12.11.2019 16:00:00 (CET)Mt. St.Vincent, France (7382): wind direction: 06.11.2019 16:00:00 - 12.11.2019 16:00:00 (CET)Mt. St.Vincent, France (7382): sunshine duration: 06.11.2019 16:00:00 - 12.11.2019 16:00:00 (CET)Mt. St.Vincent, France (7382): precipitation: 06.11.2019 16:00:00 - 12.11.2019 16:00:00 (CET)
Date & Time tt [°C] td [°C] ff [km/h] ff [kn] fx [km/h] fx [kn] dd sd [min] rr [mm]
12.11.2019 16:00:00 - - - - - - - - -
12.11.2019 15:00:00 5,3 3,0 26 14 41 22 W 12 0,0
12.11.2019 14:00:00 5,3 3,5 22 12 34 18 W 0 0,0
12.11.2019 13:00:00 4,8 3,5 18 10 41 22 SW 0 -
12.11.2019 12:00:00 4,0 3,4 24 13 41 22 WSW 0 0,2
12.11.2019 11:00:00 3,3 2,7 21 11 39 21 WSW 12 0,0
12.11.2019 10:00:00 3,1 1,6 21 11 35 19 SW 0 0,0
12.11.2019 09:00:00 2,1 1,5 22 12 39 21 WSW 12 0,0
12.11.2019 08:00:00 1,3 0,9 28 15 44 24 WSW 0 0,0
12.11.2019 07:00:00 1,3 1,2 34 18 48 26 WSW 0 -
12.11.2019 06:00:00 1,1 1,1 29 16 48 26 WSW 0 0,0
12.11.2019 05:00:00 1,2 1,2 31 17 46 25 W 0 0,0
12.11.2019 04:00:00 1,5 1,5 34 18 44 24 W 0 0,0
12.11.2019 03:00:00 1,7 1,7 29 16 42 23 W 0 0,0
12.11.2019 02:00:00 1,8 1,8 29 16 46 25 W 0 0,0
12.11.2019 01:00:00 2,2 2,2 29 16 44 24 W 0 -
12.11.2019 00:00:00 2,6 2,6 28 15 50 27 W 0 0,0
11.11.2019 23:00:00 3,1 3,1 26 14 48 26 W 0 0,0
11.11.2019 22:00:00 3,4 3,4 28 15 48 26 W 0 0,0
11.11.2019 21:00:00 3,9 3,9 26 14 44 24 W 0 0,0
11.11.2019 20:00:00 4,0 4,0 29 16 46 25 WNW 0 0,0
11.11.2019 19:00:00 4,4 4,4 34 18 52 28 W 0 -
11.11.2019 18:00:00 4,4 4,3 28 15 44 24 WSW 0 0,2
11.11.2019 17:00:00 4,7 3,8 22 12 46 25 SSW 0 0,6
11.11.2019 16:00:00 5,5 3,0 24 13 44 24 WSW 0 0,0
11.11.2019 15:00:00 6,2 1,9 28 15 42 23 WSW 0 0,0
11.11.2019 14:00:00 7,1 2,0 26 14 44 24 WSW 42 0,0
11.11.2019 13:00:00 6,8 3,0 28 15 42 23 WSW 60 -
11.11.2019 12:00:00 5,8 2,3 18 10 34 18 SSW 24 0,0
11.11.2019 11:00:00 4,0 1,9 18 10 26 14 SSW 0 0,0
11.11.2019 10:00:00 3,3 1,3 18 10 26 14 SW 0 0,0
11.11.2019 09:00:00 2,1 0,8 15 8 22 12 SW 0 0,0
11.11.2019 08:00:00 1,6 1,0 15 8 22 12 WSW 0 0,0
11.11.2019 07:00:00 1,3 1,2 11 6 21 11 WSW 0 -
11.11.2019 06:00:00 1,8 1,8 11 6 24 13 W 0 0,0
11.11.2019 05:00:00 2,1 2,1 11 6 18 10 W 0 0,0
11.11.2019 04:00:00 1,5 1,5 13 7 26 14 W 0 0,0
11.11.2019 03:00:00 2,1 1,2 11 6 18 10 W 0 0,0
11.11.2019 02:00:00 3,2 1,7 9 5 15 8 ESE 0 0,0
11.11.2019 01:00:00 3,6 1,6 4 2 11 6 NNE 0 -
11.11.2019 00:00:00 3,0 2,1 5 3 11 6 NNW 0 0,0
10.11.2019 23:00:00 2,8 2,4 5 3 13 7 WNW 0 0,0
10.11.2019 22:00:00 3,0 2,1 8 4 11 6 WNW 0 0,0
10.11.2019 21:00:00 3,6 2,1 8 4 8 4 ENE 0 0,0
10.11.2019 20:00:00 3,8 1,7 4 2 8 4 N 0 0,0
10.11.2019 19:00:00 4,0 2,0 4 2 8 4 N 0 -
10.11.2019 18:00:00 4,2 2,7 5 3 8 4 NE 0 0,0
10.11.2019 17:00:00 5,1 2,3 2 1 8 4 N 36 0,0
10.11.2019 16:00:00 5,5 4,0 2 1 11 6 NW 0 0,0
10.11.2019 15:00:00 5,8 3,6 5 3 18 10 WNW 6 0,0
10.11.2019 14:00:00 5,9 3,9 13 7 22 12 W 12 0,0
10.11.2019 13:00:00 4,6 3,6 15 8 31 17 W 0 -
10.11.2019 12:00:00 4,3 4,0 21 11 41 22 W 0 0,0
10.11.2019 11:00:00 3,7 3,6 28 15 42 23 W 0 0,0
10.11.2019 10:00:00 3,5 3,5 24 13 37 20 WSW 6 0,2
10.11.2019 09:00:00 3,1 3,1 22 12 37 20 WSW 0 0,0
10.11.2019 08:00:00 3,3 2,9 22 12 31 17 WSW 0 0,0
10.11.2019 07:00:00 3,5 3,2 18 10 42 23 WSW 0 -
10.11.2019 06:00:00 3,5 3,5 22 12 42 23 WSW 0 0,2
10.11.2019 05:00:00 3,4 3,4 21 11 39 21 WSW 0 0,4
10.11.2019 04:00:00 3,1 3,0 24 13 39 21 WSW 0 0,2
10.11.2019 03:00:00 3,3 2,3 26 14 41 22 SW 0 0,0
10.11.2019 02:00:00 3,2 1,2 24 13 41 22 S 0 0,0
10.11.2019 01:00:00 3,8 1,0 21 11 37 20 S 0 -
10.11.2019 00:00:00 3,5 2,0 16 9 29 16 SE 0 0,0
09.11.2019 23:00:00 3,4 2,1 24 13 34 18 SE 0 0,0
09.11.2019 22:00:00 3,5 2,0 22 12 31 17 SE 0 0,0
09.11.2019 21:00:00 3,7 2,2 22 12 31 17 SE 0 0,0
09.11.2019 20:00:00 3,5 2,0 18 10 28 15 SE 0 0,0
09.11.2019 19:00:00 4,0 1,9 16 9 22 12 SE 0 -
09.11.2019 18:00:00 4,1 2,3 15 8 18 10 SE 0 0,0
09.11.2019 17:00:00 4,5 2,4 11 6 15 8 SSE 48 0,0
09.11.2019 16:00:00 5,9 2,5 8 4 24 13 SW 54 0,0
09.11.2019 15:00:00 6,3 3,5 13 7 31 17 W 54 0,0
09.11.2019 14:00:00 5,6 3,9 18 10 34 18 W 30 0,0
09.11.2019 13:00:00 5,7 3,9 22 12 31 17 WSW 30 -
09.11.2019 12:00:00 4,2 4,2 18 10 31 17 W 0 0,0
09.11.2019 11:00:00 4,1 4,1 18 10 29 16 W 0 0,0
09.11.2019 10:00:00 3,8 3,8 15 8 24 13 W 0 0,0
09.11.2019 09:00:00 3,2 3,2 16 9 24 13 W 0 0,0
09.11.2019 08:00:00 3,0 3,0 16 9 24 13 W 0 0,0
09.11.2019 07:00:00 2,6 2,6 16 9 28 15 W 0 -
09.11.2019 06:00:00 2,8 2,8 15 8 24 13 W 0 0,2
09.11.2019 05:00:00 2,7 2,7 13 7 22 12 W 0 0,0
09.11.2019 04:00:00 3,2 2,9 8 4 11 6 W 0 0,0
09.11.2019 03:00:00 3,9 3,0 4 2 13 7 NW 0 0,0
09.11.2019 02:00:00 4,1 2,9 4 2 13 7 NW 0 0,0
09.11.2019 01:00:00 4,1 2,9 9 5 21 11 NNW 0 -
09.11.2019 00:00:00 4,4 3,1 8 4 18 10 N 0 0,0
08.11.2019 23:00:00 5,0 3,0 8 4 22 12 NNE 0 0,0
08.11.2019 22:00:00 4,5 3,2 9 5 22 12 NNE 0 0,0
08.11.2019 21:00:00 4,3 3,0 11 6 22 12 NE 0 0,0
08.11.2019 20:00:00 4,5 1,5 11 6 21 11 NNE 0 0,0
08.11.2019 19:00:00 4,7 1,4 11 6 18 10 NNE 0 -
08.11.2019 18:00:00 4,3 2,0 8 4 11 6 NE 0 0,0
08.11.2019 17:00:00 5,0 2,0 9 5 16 9 E 18 0,0
08.11.2019 16:00:00 6,0 2,3 15 8 24 13 E 42 0,0
08.11.2019 15:00:00 6,1 3,3 16 9 26 14 E 6 0,0
08.11.2019 14:00:00 5,8 3,5 13 7 22 12 ENE 6 0,0
08.11.2019 13:00:00 7,4 4,2 11 6 22 12 E 60 -
08.11.2019 12:00:00 6,9 4,2 9 5 16 9 E 60 0,0
08.11.2019 11:00:00 6,6 4,1 11 6 18 10 E 60 0,0
08.11.2019 10:00:00 5,2 3,5 5 3 11 6 E 36 0,0
08.11.2019 09:00:00 4,6 2,8 8 4 15 8 ESE 24 0,0
08.11.2019 08:00:00 4,1 1,6 5 3 11 6 SE 0 0,0
08.11.2019 07:00:00 4,1 1,0 9 5 13 7 SSE 0 -
08.11.2019 06:00:00 4,9 0,8 9 5 18 10 S 0 0,0
08.11.2019 05:00:00 4,5 2,2 11 6 22 12 SSE 0 0,0
08.11.2019 04:00:00 4,0 2,2 15 8 21 11 ESE 0 0,0
08.11.2019 03:00:00 3,9 1,9 13 7 18 10 SE 0 0,0
08.11.2019 02:00:00 3,9 1,4 9 5 22 12 SW 0 0,0
08.11.2019 01:00:00 4,1 1,8 16 9 29 16 WSW 0 -
08.11.2019 00:00:00 4,2 2,4 18 10 31 17 WSW 0 0,0
07.11.2019 23:00:00 4,4 2,4 21 11 29 16 WSW 0 0,0
07.11.2019 22:00:00 4,8 2,3 16 9 29 16 WSW 0 0,0
07.11.2019 21:00:00 5,0 2,2 24 13 34 18 W 0 0,0
07.11.2019 20:00:00 5,2 1,7 18 10 37 20 WSW 0 0,0
07.11.2019 19:00:00 5,6 1,3 16 9 29 16 S 0 -
07.11.2019 18:00:00 5,6 1,1 16 9 26 14 S 0 0,0
07.11.2019 17:00:00 6,3 1,4 16 9 29 16 SSW 24 0,0
07.11.2019 16:00:00 6,9 2,0 13 7 35 19 SW 36 0,0
07.11.2019 15:00:00 6,7 1,4 22 12 42 23 WSW 12 0,0
07.11.2019 14:00:00 6,4 2,3 22 12 50 27 WSW 0 0,0
07.11.2019 13:00:00 6,2 2,5 37 20 63 34 W 0 -
07.11.2019 12:00:00 6,4 3,5 34 18 55 30 WSW 0 0,0
07.11.2019 11:00:00 6,0 3,8 39 21 63 34 W 12 0,0
07.11.2019 10:00:00 6,1 5,8 41 22 78 42 W 0 0,0
07.11.2019 09:00:00 6,6 5,9 39 21 67 36 WSW 0 0,0
07.11.2019 08:00:00 6,1 5,5 29 16 50 27 SSW 0 0,2
07.11.2019 07:00:00 5,3 5,2 28 15 42 23 SSE 0 -
07.11.2019 06:00:00 5,3 4,7 24 13 37 20 SSE 0 2,0
07.11.2019 05:00:00 6,3 4,0 26 14 42 23 S 0 0,0
07.11.2019 04:00:00 6,3 3,8 21 11 35 19 S 0 0,0
07.11.2019 03:00:00 6,7 3,8 24 13 41 22 SSW 0 0,0
07.11.2019 02:00:00 6,3 4,1 22 12 34 18 S 0 0,0
07.11.2019 01:00:00 5,8 4,4 16 9 35 19 S 0 -
07.11.2019 00:00:00 6,5 4,3 22 12 34 18 SSW 0 0,0
06.11.2019 23:00:00 6,4 4,9 18 10 34 18 SSW 0 0,0
06.11.2019 22:00:00 6,5 5,4 18 10 34 18 SW 0 0,4
06.11.2019 21:00:00 6,3 5,7 18 10 28 15 SW 0 0,0
06.11.2019 20:00:00 6,3 6,3 16 9 29 16 WSW 0 0,0
06.11.2019 19:00:00 6,7 6,1 18 10 31 17 SW 0 -
06.11.2019 18:00:00 6,7 6,3 16 9 26 14 WSW 0 0,0
06.11.2019 17:00:00 6,8 6,1 16 9 39 21 W 12 0,0
06.11.2019 16:00:00 7,5 6,3 24 13 37 20 W 0 0,0

tt = temperature
td = dewpoint
ff = wind speed
fx = gusts
dd = wind direction
sd = sunshine duration
rr = precipitation

Next stations